Time;durP1;ratioP1;P1;durP2;ratioP2;P2;SDS_P1;SDS_P2;PMS_P1;PMS_P2;Temp;Humidity;BMP_temperature;BMP_pressure;BME280_temperature;BME280_humidity;BME280_pressure;Samples;Min_cycle;Max_cycle;Signal;HPM_P1;HPM_P2
2023/10/30 00:01:19;;;;;;;1.17;1.08;;;17.50;71.30;;;;;;5061035;28;20047;-75
2023/10/30 00:03:44;;;;;;;1.00;0.90;;;17.50;72.10;;;;;;5063032;28;20068;-76
2023/10/30 00:06:10;;;;;;;1.30;1.02;;;17.50;71.30;;;;;;5063389;28;20410;-76
2023/10/30 00:08:35;;;;;;;1.17;1.08;;;17.50;71.30;;;;;;5064423;28;20075;-76
2023/10/30 00:11:01;;;;;;;1.10;0.70;;;17.50;71.30;;;;;;5060419;28;20049;-75
2023/10/30 00:13:27;;;;;;;1.23;1.10;;;17.50;71.20;;;;;;5061625;28;20883;-76
2023/10/30 00:15:52;;;;;;;1.13;0.80;;;17.50;71.30;;;;;;5061444;28;20123;-75
2023/10/30 00:18:18;;;;;;;1.00;0.80;;;17.50;71.30;;;;;;5067111;28;20078;-76
2023/10/30 00:20:43;;;;;;;1.38;1.00;;;17.50;72.10;;;;;;5062431;28;20223;-76
2023/10/30 00:23:09;;;;;;;1.38;0.98;;;17.50;71.40;;;;;;5063211;28;20665;-76
2023/10/30 00:25:35;;;;;;;0.80;0.80;;;17.50;71.30;;;;;;5064168;28;20414;-75
2023/10/30 00:28:00;;;;;;;1.77;0.80;;;17.50;71.30;;;;;;5063119;28;20613;-76
2023/10/30 00:30:28;;;;;;;0.88;0.80;;;17.50;71.30;;;;;;5064419;28;20044;-76
2023/10/30 00:32:53;;;;;;;1.60;1.10;;;17.50;72.10;;;;;;5063002;28;20040;-75
2023/10/30 00:35:19;;;;;;;1.00;0.80;;;17.50;71.30;;;;;;5061612;28;20525;-76
2023/10/30 00:37:45;;;;;;;1.70;1.05;;;17.50;71.30;;;;;;5062285;28;20466;-75
2023/10/30 00:40:11;;;;;;;0.80;0.80;;;17.50;71.30;;;;;;5061760;28;20060;-76
2023/10/30 00:42:37;;;;;;;0.98;0.88;;;17.50;71.30;;;;;;5063637;28;20040;-75
2023/10/30 00:45:05;;;;;;;3.28;1.10;;;17.50;71.30;;;;;;5095671;28;20040;-76
2023/10/30 00:47:31;;;;;;;1.20;0.95;;;17.50;71.30;;;;;;5045892;28;20047;-75
2023/10/30 00:49:56;;;;;;;1.27;0.88;;;17.50;71.30;;;;;;5063716;28;20037;-76
2023/10/30 00:52:22;;;;;;;0.98;0.80;;;17.50;71.30;;;;;;5064167;28;20056;-76
2023/10/30 00:54:48;;;;;;;1.13;0.85;;;17.50;71.30;;;;;;5062623;28;20510;-76
2023/10/30 00:57:13;;;;;;;1.42;0.90;;;17.50;71.30;;;;;;5065400;28;20573;-75
2023/10/30 00:59:39;;;;;;;1.02;0.60;;;17.50;71.30;;;;;;5058840;28;21084;-76
2023/10/30 01:02:05;;;;;;;0.75;0.75;;;17.40;71.50;;;;;;5060400;28;20050;-76
2023/10/30 01:04:30;;;;;;;0.88;0.88;;;17.50;71.40;;;;;;5062820;28;20077;-76
2023/10/30 01:06:56;;;;;;;1.00;0.88;;;17.50;71.40;;;;;;5094232;28;20056;-76
2023/10/30 01:09:21;;;;;;;0.50;0.50;;;17.50;71.40;;;;;;5064374;28;20041;-76
2023/10/30 01:11:47;;;;;;;1.17;0.80;;;17.50;71.30;;;;;;5060110;28;20409;-76
2023/10/30 01:14:13;;;;;;;1.38;0.82;;;17.50;71.30;;;;;;5062995;28;20101;-76
2023/10/30 01:16:38;;;;;;;1.10;1.00;;;17.50;71.30;;;;;;5062282;28;20488;-75
2023/10/30 01:19:04;;;;;;;1.15;0.80;;;17.50;71.30;;;;;;5061255;28;20087;-75
2023/10/30 01:21:29;;;;;;;1.05;0.80;;;17.50;71.30;;;;;;5063781;28;20087;-75
2023/10/30 01:23:55;;;;;;;0.70;0.70;;;17.50;71.30;;;;;;5061703;28;20051;-75
2023/10/30 01:26:20;;;;;;;1.00;0.80;;;17.50;71.40;;;;;;5058933;28;20048;-75
2023/10/30 01:28:46;;;;;;;1.30;1.10;;;17.40;71.50;;;;;;5062456;28;20064;-75
2023/10/30 01:31:11;;;;;;;0.98;0.88;;;17.50;71.50;;;;;;5060357;28;20044;-76
2023/10/30 01:33:37;;;;;;;0.90;0.73;;;17.50;71.70;;;;;;5062811;28;20419;-75
2023/10/30 01:36:03;;;;;;;1.17;0.77;;;17.40;71.50;;;;;;5064001;28;20125;-76
2023/10/30 01:38:29;;;;;;;1.25;0.80;;;17.40;71.60;;;;;;5060858;28;20040;-75
2023/10/30 01:40:54;;;;;;;0.98;0.70;;;17.50;72.30;;;;;;5060972;28;20464;-75
2023/10/30 01:43:29;;;;;;;1.02;0.93;;;17.50;71.70;;;;;;5061985;28;20040;-75
2023/10/30 01:45:55;;;;;;;1.27;1.02;;;17.50;71.60;;;;;;5046732;28;20506;-75
2023/10/30 01:48:21;;;;;;;0.80;0.80;;;17.50;71.60;;;;;;5062541;28;20052;-75
2023/10/30 01:50:48;;;;;;;2.33;1.13;;;17.50;71.60;;;;;;5062865;28;20041;-75
2023/10/30 01:53:15;;;;;;;0.77;0.65;;;17.50;71.60;;;;;;5060411;28;20040;-75
2023/10/30 01:55:41;;;;;;;2.42;1.13;;;17.50;71.60;;;;;;5088446;28;20098;-75
2023/10/30 01:58:07;;;;;;;2.17;0.60;;;17.50;71.70;;;;;;5078460;28;20060;-75
2023/10/30 02:00:33;;;;;;;2.17;0.82;;;17.50;71.70;;;;;;5063100;28;20129;-75
2023/10/30 02:02:58;;;;;;;1.88;1.10;;;17.50;71.60;;;;;;5062377;28;20036;-75
2023/10/30 02:05:24;;;;;;;1.73;0.77;;;17.50;71.70;;;;;;5058447;28;20123;-75
2023/10/30 02:07:49;;;;;;;1.13;0.80;;;17.50;71.70;;;;;;5093673;28;20437;-75
2023/10/30 02:10:15;;;;;;;1.10;0.98;;;17.50;71.80;;;;;;5059794;28;20041;-75
2023/10/30 02:12:48;;;;;;;1.20;0.60;;;17.50;71.80;;;;;;5062802;28;20040;-75
2023/10/30 02:15:14;;;;;;;1.15;0.77;;;17.50;72.00;;;;;;5062803;28;20060;-75
2023/10/30 02:17:39;;;;;;;1.45;0.80;;;17.50;71.90;;;;;;5062765;28;20410;-75
2023/10/30 02:20:05;;;;;;;0.98;0.80;;;17.50;72.00;;;;;;5061163;28;20044;-75
2023/10/30 02:22:31;;;;;;;1.02;0.85;;;17.50;71.90;;;;;;5060527;28;20518;-75
2023/10/30 02:24:57;;;;;;;0.90;0.80;;;17.50;72.00;;;;;;5058026;28;20055;-75
2023/10/30 02:27:23;;;;;;;1.38;1.00;;;17.50;72.00;;;;;;5095811;28;20148;-75
2023/10/30 02:29:48;;;;;;;2.97;0.70;;;17.50;72.10;;;;;;5060030;28;20087;-75
2023/10/30 02:32:14;;;;;;;1.15;0.60;;;17.50;72.00;;;;;;5063198;28;20469;-76
2023/10/30 02:34:39;;;;;;;1.30;0.60;;;17.50;72.10;;;;;;5063644;28;20044;-75
2023/10/30 02:37:05;;;;;;;0.77;0.50;;;17.50;72.00;;;;;;5061487;28;20051;-75
2023/10/30 02:39:33;;;;;;;0.60;0.57;;;17.50;72.10;;;;;;5067038;28;21582;-76
2023/10/30 02:41:59;;;;;;;0.88;0.70;;;17.50;71.90;;;;;;5068472;28;20036;-75
2023/10/30 02:44:25;;;;;;;1.10;0.70;;;17.50;72.00;;;;;;5066578;28;20050;-76
2023/10/30 02:46:50;;;;;;;1.13;0.63;;;17.50;71.90;;;;;;5067387;28;20032;-75
2023/10/30 02:49:16;;;;;;;1.30;0.70;;;17.50;71.80;;;;;;5063962;28;20105;-75
2023/10/30 02:51:42;;;;;;;1.10;0.80;;;17.50;71.80;;;;;;5066922;28;20048;-75
2023/10/30 02:54:07;;;;;;;1.50;0.90;;;17.50;71.90;;;;;;5067735;28;20041;-76
2023/10/30 02:56:33;;;;;;;0.90;0.70;;;17.50;71.90;;;;;;5070742;28;20121;-75
2023/10/30 02:58:59;;;;;;;0.93;0.63;;;17.50;72.00;;;;;;5098744;28;20033;-76
2023/10/30 03:01:26;;;;;;;0.93;0.70;;;17.50;72.00;;;;;;5066967;28;20449;-76
2023/10/30 03:03:51;;;;;;;1.50;0.73;;;17.50;71.90;;;;;;5066183;28;20410;-75
2023/10/30 03:06:17;;;;;;;0.90;0.80;;;17.50;71.90;;;;;;5068250;28;20041;-75
2023/10/30 03:08:43;;;;;;;0.63;0.47;;;17.50;71.80;;;;;;5067980;28;20041;-76
2023/10/30 03:11:08;;;;;;;1.27;0.80;;;17.50;71.90;;;;;;5067952;28;20242;-75
2023/10/30 03:13:34;;;;;;;1.23;0.93;;;17.50;71.90;;;;;;5068293;28;20078;-76
2023/10/30 03:15:59;;;;;;;0.50;0.50;;;17.50;72.00;;;;;;5067329;28;20301;-75
2023/10/30 03:18:25;;;;;;;0.68;0.55;;;17.50;72.70;;;;;;5066298;28;20032;-75
2023/10/30 03:20:50;;;;;;;1.52;0.60;;;17.50;71.90;;;;;;5063398;28;20127;-75
2023/10/30 03:23:16;;;;;;;0.77;0.60;;;17.50;71.90;;;;;;5065139;28;20041;-75
2023/10/30 03:25:42;;;;;;;1.05;0.77;;;17.50;71.90;;;;;;5066899;28;20037;-76
2023/10/30 03:28:07;;;;;;;0.90;0.70;;;17.50;72.10;;;;;;5097340;28;20429;-76
2023/10/30 03:30:36;;;;;;;0.50;0.40;;;17.50;71.90;;;;;;5069720;28;20118;-76
2023/10/30 03:33:05;;;;;;;0.65;0.50;;;17.50;71.80;;;;;;5066552;28;20048;-76
2023/10/30 03:35:31;;;;;;;0.63;0.40;;;17.50;71.80;;;;;;5068128;28;20040;-75
2023/10/30 03:37:56;;;;;;;0.68;0.52;;;17.50;71.80;;;;;;5064708;28;20032;-75
2023/10/30 03:40:22;;;;;;;1.88;0.45;;;17.60;71.90;;;;;;5067038;28;20573;-75
2023/10/30 03:42:48;;;;;;;1.10;0.35;;;17.60;71.90;;;;;;5070109;28;20045;-75
2023/10/30 03:45:13;;;;;;;1.95;0.90;;;17.60;72.00;;;;;;5070494;28;20040;-75
2023/10/30 03:47:40;;;;;;;0.60;0.57;;;17.60;72.20;;;;;;5066041;28;20056;-76
2023/10/30 03:50:08;;;;;;;0.38;0.38;;;17.60;72.30;;;;;;5062252;28;20403;-75
2023/10/30 03:52:33;;;;;;;0.85;0.30;;;17.60;72.30;;;;;;5087222;28;20036;-75
2023/10/30 03:55:03;;;;;;;0.35;0.35;;;17.60;72.50;;;;;;5064740;28;20045;-75
2023/10/30 03:57:29;;;;;;;0.70;0.55;;;17.60;72.60;;;;;;5065746;28;20045;-75
2023/10/30 03:59:55;;;;;;;0.63;0.50;;;17.60;72.60;;;;;;5066374;28;20049;-75
2023/10/30 04:02:20;;;;;;;0.47;0.35;;;17.60;72.70;;;;;;5062561;28;20040;-76
2023/10/30 04:04:46;;;;;;;0.98;0.47;;;17.50;72.60;;;;;;5061604;28;20673;-75
2023/10/30 04:07:12;;;;;;;0.55;0.40;;;17.60;72.70;;;;;;5061001;28;20080;-75
2023/10/30 04:09:37;;;;;;;0.60;0.60;;;17.60;72.80;;;;;;5097425;28;20044;-75
2023/10/30 04:12:04;;;;;;;0.43;0.43;;;17.50;72.80;;;;;;5064291;28;20421;-75
2023/10/30 04:14:32;;;;;;;0.55;0.43;;;17.60;73.60;;;;;;5060615;28;20060;-75
2023/10/30 04:16:59;;;;;;;0.85;0.50;;;17.50;72.80;;;;;;5063413;28;20025;-75
2023/10/30 04:19:24;;;;;;;1.35;0.50;;;17.60;72.90;;;;;;5061259;28;20037;-75
2023/10/30 04:21:50;;;;;;;0.60;0.45;;;17.60;72.80;;;;;;5062157;28;20059;-75
2023/10/30 04:24:15;;;;;;;0.52;0.20;;;17.60;72.80;;;;;;5066279;28;20059;-75
2023/10/30 04:26:41;;;;;;;0.43;0.40;;;17.50;72.80;;;;;;5062799;28;20140;-75
2023/10/30 04:29:06;;;;;;;0.47;0.40;;;17.60;73.70;;;;;;5065550;28;20057;-75
2023/10/30 04:31:32;;;;;;;0.77;0.40;;;17.60;72.90;;;;;;5059617;28;20044;-76
2023/10/30 04:33:57;;;;;;;0.50;0.38;;;17.60;72.90;;;;;;5062315;28;20127;-75
2023/10/30 04:36:23;;;;;;;1.75;0.77;;;17.60;72.90;;;;;;5061555;28;20048;-76
2023/10/30 04:38:50;;;;;;;0.50;0.50;;;17.60;72.80;;;;;;5063563;28;20036;-76
2023/10/30 04:41:15;;;;;;;1.58;0.30;;;17.50;72.80;;;;;;5062644;28;20044;-75
2023/10/30 04:43:41;;;;;;;0.63;0.40;;;17.60;72.90;;;;;;5096862;28;20037;-76
2023/10/30 04:46:07;;;;;;;0.52;0.35;;;17.60;72.80;;;;;;5059916;28;20147;-75
2023/10/30 04:48:33;;;;;;;0.30;0.30;;;17.60;72.90;;;;;;5064534;28;20044;-75
2023/10/30 04:50:59;;;;;;;0.65;0.30;;;17.50;72.80;;;;;;5059986;28;20040;-75
2023/10/30 04:53:25;;;;;;;0.38;0.30;;;17.60;72.90;;;;;;5064763;28;20044;-75
2023/10/30 04:55:50;;;;;;;0.90;0.50;;;17.60;72.90;;;;;;5062070;28;20056;-76
2023/10/30 04:58:16;;;;;;;0.80;0.60;;;17.50;72.80;;;;;;5060104;28;20403;-75
2023/10/30 05:00:42;;;;;;;0.47;0.40;;;17.50;72.80;;;;;;5064682;28;20032;-75
2023/10/30 05:03:09;;;;;;;0.40;0.40;;;17.50;72.80;;;;;;5064491;28;20068;-75
2023/10/30 05:05:35;;;;;;;0.80;0.40;;;17.60;72.80;;;;;;5062015;28;20040;-75
2023/10/30 05:08:01;;;;;;;0.55;0.25;;;17.60;72.80;;;;;;5063484;28;20482;-75
2023/10/30 05:10:26;;;;;;;0.63;0.40;;;17.50;72.80;;;;;;5061691;28;20071;-75
2023/10/30 05:12:52;;;;;;;0.73;0.40;;;17.50;72.80;;;;;;5062895;28;20129;-75
2023/10/30 05:15:18;;;;;;;0.70;0.40;;;17.50;72.80;;;;;;5064950;28;20406;-75
2023/10/30 05:17:44;;;;;;;0.30;0.30;;;17.50;72.70;;;;;;5063224;28;20055;-75
2023/10/30 05:20:10;;;;;;;1.48;0.60;;;17.60;72.80;;;;;;5062187;28;20049;-75
2023/10/30 05:22:35;;;;;;;0.60;0.30;;;17.60;72.80;;;;;;5060649;28;20052;-75
2023/10/30 05:25:05;;;;;;;0.40;0.40;;;17.60;72.90;;;;;;5061579;28;20481;-75
2023/10/30 05:27:30;;;;;;;0.60;0.32;;;17.50;72.80;;;;;;5057774;28;20040;-75
2023/10/30 05:29:56;;;;;;;0.47;0.30;;;17.50;72.80;;;;;;5061209;28;20044;-75
2023/10/30 05:32:22;;;;;;;0.40;0.30;;;17.50;72.80;;;;;;5046165;28;20045;-75
2023/10/30 05:34:48;;;;;;;0.30;0.30;;;17.50;72.70;;;;;;5060963;28;20540;-76
2023/10/30 05:37:14;;;;;;;0.55;0.45;;;17.50;72.70;;;;;;5062579;28;20048;-75
2023/10/30 05:39:40;;;;;;;0.75;0.40;;;17.50;72.70;;;;;;5062579;28;20135;-75
2023/10/30 05:42:06;;;;;;;0.20;0.20;;;17.50;72.70;;;;;;5061760;28;20136;-75
2023/10/30 05:44:31;;;;;;;0.50;0.40;;;17.50;72.70;;;;;;5064292;28;20036;-75
2023/10/30 05:46:58;;;;;;;0.20;0.20;;;17.50;72.70;;;;;;5061410;28;20575;-76
2023/10/30 05:49:24;;;;;;;0.73;0.30;;;17.50;72.70;;;;;;5061459;28;20040;-76
2023/10/30 05:51:49;;;;;;;0.63;0.50;;;17.50;72.70;;;;;;5061824;28;20132;-76
2023/10/30 05:54:15;;;;;;;0.45;0.30;;;17.50;72.60;;;;;;5062580;28;20143;-75
2023/10/30 05:56:40;;;;;;;0.40;0.40;;;17.50;73.50;;;;;;5061819;28;20049;-75
2023/10/30 05:59:06;;;;;;;0.60;0.47;;;17.50;72.60;;;;;;5057852;28;20446;-75
2023/10/30 06:01:32;;;;;;;0.28;0.20;;;17.50;72.70;;;;;;5064165;28;20080;-76
2023/10/30 06:03:57;;;;;;;0.32;0.20;;;17.50;72.70;;;;;;5095108;28;20040;-75
2023/10/30 06:06:23;;;;;;;0.30;0.30;;;17.50;72.60;;;;;;5063326;28;20044;-80
2023/10/30 06:08:49;;;;;;;0.38;0.30;;;17.50;72.50;;;;;;5062913;28;20132;-80
2023/10/30 06:11:15;;;;;;;0.15;0.10;;;17.50;72.60;;;;;;5062365;28;20196;-79
2023/10/30 06:13:41;;;;;;;0.25;0.20;;;17.50;72.60;;;;;;5060111;28;20102;-79
2023/10/30 06:16:06;;;;;;;0.30;0.30;;;17.50;72.60;;;;;;5059097;28;20053;-79
2023/10/30 06:18:32;;;;;;;0.45;0.40;;;17.50;72.70;;;;;;5061526;28;20086;-79
2023/10/30 06:21:00;;;;;;;0.40;0.40;;;17.50;72.70;;;;;;5063699;28;20037;-80
2023/10/30 06:23:26;;;;;;;0.68;0.30;;;17.50;72.60;;;;;;5059633;28;23645;-80
2023/10/30 06:25:51;;;;;;;0.40;0.30;;;17.50;72.60;;;;;;5061993;28;20119;-80
2023/10/30 06:28:17;;;;;;;0.80;0.40;;;17.50;72.60;;;;;;5062257;28;20448;-80
2023/10/30 06:30:43;;;;;;;0.20;0.20;;;17.50;72.60;;;;;;5060211;28;20119;-80
2023/10/30 06:33:09;;;;;;;0.30;0.30;;;17.50;72.60;;;;;;5063611;28;20025;-80
2023/10/30 06:35:34;;;;;;;0.82;0.30;;;17.50;72.60;;;;;;5062475;28;20054;-80
2023/10/30 06:38:00;;;;;;;0.28;0.28;;;17.50;72.70;;;;;;5058768;28;20550;-82
2023/10/30 06:40:25;;;;;;;1.92;0.30;;;17.50;72.60;;;;;;5060914;28;20132;-81
2023/10/30 06:42:51;;;;;;;0.82;0.45;;;17.50;72.90;;;;;;5061067;28;20036;-80
2023/10/30 06:45:17;;;;;;;0.55;0.30;;;17.50;72.80;;;;;;5059501;28;20045;-77
2023/10/30 06:47:43;;;;;;;0.50;0.28;;;17.50;73.20;;;;;;5061459;28;20064;-79
2023/10/30 06:50:09;;;;;;;0.30;0.15;;;17.60;73.30;;;;;;5058208;28;20548;-77
2023/10/30 06:52:35;;;;;;;0.43;0.28;;;17.60;73.40;;;;;;5062571;28;20048;-77
2023/10/30 06:55:00;;;;;;;2.83;0.30;;;17.60;73.90;;;;;;5058600;28;20044;-79
2023/10/30 06:57:26;;;;;;;0.60;0.40;;;17.60;74.20;;;;;;5060816;28;20044;-80
2023/10/30 06:59:55;;;;;;;1.60;0.40;;;17.60;73.80;;;;;;5059548;28;20041;-79
2023/10/30 07:02:21;;;;;;;0.38;0.30;;;17.60;74.20;;;;;;5060812;28;20047;-76
2023/10/30 07:04:46;;;;;;;1.13;0.30;;;17.60;73.90;;;;;;5060271;28;20037;-79
2023/10/30 07:07:12;;;;;;;0.25;0.20;;;17.60;73.90;;;;;;5059645;28;20395;-79
2023/10/30 07:09:37;;;;;;;0.95;0.35;;;17.60;74.40;;;;;;5059866;28;20041;-79
2023/10/30 07:12:03;;;;;;;0.65;0.40;;;17.50;74.30;;;;;;5059480;28;20119;-79
2023/10/30 07:14:29;;;;;;;0.50;0.40;;;17.60;74.00;;;;;;5060005;28;20061;-79
2023/10/30 07:16:54;;;;;;;0.20;0.20;;;17.50;74.20;;;;;;5060435;28;20083;-78
2023/10/30 07:19:22;;;;;;;0.60;0.40;;;17.60;74.10;;;;;;5059642;28;20401;-78
2023/10/30 07:21:47;;;;;;;0.32;0.28;;;17.50;74.10;;;;;;5062531;28;20053;-78
2023/10/30 07:24:13;;;;;;;0.47;0.38;;;17.50;74.20;;;;;;5062894;28;20060;-80
2023/10/30 07:26:38;;;;;;;1.50;0.45;;;17.50;74.00;;;;;;5064620;28;20049;-77
2023/10/30 07:29:04;;;;;;;0.65;0.30;;;17.60;73.70;;;;;;5078182;28;20508;-80
2023/10/30 07:31:30;;;;;;;2.78;0.30;;;17.60;73.20;;;;;;5063650;28;20105;-79
2023/10/30 07:33:55;;;;;;;0.30;0.20;;;17.60;73.70;;;;;;4714644;28;10000418;-79
2023/10/30 07:36:21;;;;;;;1.05;0.30;;;17.60;73.60;;;;;;4710313;28;10000372;-79
2023/10/30 07:38:48;;;;;;;0.20;0.20;;;17.60;73.40;;;;;;5062146;28;20548;-79
2023/10/30 07:41:13;;;;;;;0.98;0.30;;;17.60;73.50;;;;;;5059812;28;20049;-79
2023/10/30 07:43:39;;;;;;;1.02;0.20;;;17.60;73.50;;;;;;5061950;28;20418;-79
2023/10/30 07:46:05;;;;;;;0.32;0.25;;;17.60;73.20;;;;;;5061408;28;20148;-79
2023/10/30 07:48:30;;;;;;;0.45;0.30;;;17.60;73.20;;;;;;5060132;28;21173;-79
2023/10/30 07:51:00;;;;;;;0.40;0.38;;;17.50;73.20;;;;;;5059629;28;20105;-79
2023/10/30 07:53:26;;;;;;;0.93;0.10;;;17.60;73.20;;;;;;5059855;28;20036;-79
2023/10/30 07:55:51;;;;;;;0.30;0.30;;;17.60;73.40;;;;;;5060562;28;20048;-79
2023/10/30 07:58:17;;;;;;;0.10;0.10;;;17.60;73.40;;;;;;5055231;28;20144;-77
2023/10/30 08:00:42;;;;;;;1.08;0.22;;;17.50;73.60;;;;;;5052055;28;20102;-77
2023/10/30 08:03:08;;;;;;;0.38;0.20;;;17.60;74.40;;;;;;5060925;28;20044;-78
2023/10/30 08:05:33;;;;;;;0.17;0.10;;;17.60;73.80;;;;;;5062142;28;20040;-78
2023/10/30 08:07:59;;;;;;;3.80;0.35;;;17.60;73.20;;;;;;5065736;28;20033;-78
2023/10/30 08:10:26;;;;;;;0.43;0.20;;;17.60;73.20;;;;;;5064060;28;20029;-77
2023/10/30 08:12:52;;;;;;;0.38;0.20;;;17.60;73.20;;;;;;5063128;28;20068;-78
2023/10/30 08:15:17;;;;;;;0.68;0.13;;;17.60;73.10;;;;;;5064433;28;20125;-76
2023/10/30 08:17:43;;;;;;;0.22;0.20;;;17.60;73.00;;;;;;5059858;28;20060;-77
2023/10/30 08:20:12;;;;;;;0.20;0.20;;;17.60;73.00;;;;;;5062224;28;20083;-77
2023/10/30 08:22:37;;;;;;;0.30;0.30;;;17.60;73.00;;;;;;5057847;28;20504;-78
2023/10/30 08:25:04;;;;;;;1.05;0.32;;;17.60;73.40;;;;;;5061472;28;20590;-78
2023/10/30 08:27:30;;;;;;;0.75;0.30;;;17.50;73.20;;;;;;5061404;28;20221;-77
2023/10/30 08:29:56;;;;;;;0.22;0.22;;;17.60;73.00;;;;;;5063945;28;20494;-77
2023/10/30 08:32:21;;;;;;;3.92;0.40;;;17.60;73.20;;;;;;5064218;28;20048;-77
2023/10/30 08:34:47;;;;;;;0.60;0.30;;;17.60;73.00;;;;;;5063310;28;20553;-77
2023/10/30 08:37:12;;;;;;;1.45;0.30;;;17.60;73.20;;;;;;5063190;28;20048;-78
2023/10/30 08:39:38;;;;;;;0.57;0.30;;;17.60;73.00;;;;;;5067956;28;20468;-79
2023/10/30 08:42:04;;;;;;;0.75;0.22;;;17.60;73.80;;;;;;5061728;28;20080;-78
2023/10/30 08:44:31;;;;;;;1.00;0.20;;;17.60;73.20;;;;;;5064829;28;20033;-78
2023/10/30 08:46:57;;;;;;;0.30;0.20;;;17.60;73.40;;;;;;5059883;28;20498;-78
2023/10/30 08:49:23;;;;;;;0.30;0.28;;;17.60;73.00;;;;;;5059059;28;20167;-79
2023/10/30 08:51:48;;;;;;;0.38;0.20;;;17.60;73.10;;;;;;5063004;28;20487;-78
2023/10/30 08:54:14;;;;;;;0.43;0.25;;;17.60;73.00;;;;;;5063855;28;20036;-79
2023/10/30 08:56:41;;;;;;;0.30;0.10;;;17.60;73.20;;;;;;5059982;28;20525;-78
2023/10/30 08:59:07;;;;;;;2.38;0.10;;;17.60;72.80;;;;;;5058391;28;20052;-78
2023/10/30 09:01:32;;;;;;;1.27;0.45;;;17.60;72.90;;;;;;5062360;28;20410;-78
2023/10/30 09:03:58;;;;;;;1.08;0.28;;;17.60;72.70;;;;;;5061409;28;20033;-80
2023/10/30 09:06:24;;;;;;;0.57;0.20;;;17.60;72.60;;;;;;5064538;28;20213;-80
2023/10/30 09:08:49;;;;;;;0.30;0.30;;;17.60;72.60;;;;;;5061327;28;20039;-80
2023/10/30 09:11:15;;;;;;;0.40;0.20;;;17.60;72.80;;;;;;5060801;28;20037;-81
2023/10/30 09:13:41;;;;;;;0.52;0.35;;;17.70;73.30;;;;;;5061905;28;20488;-81
2023/10/30 09:16:06;;;;;;;0.25;0.20;;;17.70;74.10;;;;;;5064335;28;20037;-79
2023/10/30 09:18:32;;;;;;;0.80;0.30;;;17.70;73.60;;;;;;5062647;28;20107;-79
2023/10/30 09:20:57;;;;;;;1.33;0.10;;;17.70;73.50;;;;;;5062593;28;20830;-80
2023/10/30 09:23:23;;;;;;;0.45;0.10;;;17.70;74.30;;;;;;5062448;28;20406;-81
2023/10/30 09:25:49;;;;;;;0.40;0.30;;;17.70;73.40;;;;;;5061990;28;20514;-81
2023/10/30 09:28:14;;;;;;;0.50;0.38;;;17.70;73.60;;;;;;5062960;28;20048;-81
2023/10/30 09:30:40;;;;;;;0.30;0.20;;;17.70;74.30;;;;;;5062251;28;20209;-79
2023/10/30 09:33:07;;;;;;;0.30;0.20;;;17.70;73.50;;;;;;5063886;28;20051;-80
2023/10/30 09:35:33;;;;;;;0.35;0.30;;;17.70;73.50;;;;;;5061589;28;20060;-80
2023/10/30 09:37:59;;;;;;;0.20;0.15;;;17.70;73.50;;;;;;5061473;28;20040;-82
2023/10/30 09:40:28;;;;;;;0.20;0.20;;;17.70;73.40;;;;;;5060695;28;20032;-79
2023/10/30 09:42:54;;;;;;;0.65;0.28;;;17.70;73.50;;;;;;5059909;28;20033;-80
2023/10/30 09:45:22;;;;;;;0.50;0.20;;;17.70;73.50;;;;;;5061296;28;20033;-78
2023/10/30 09:47:50;;;;;;;1.23;0.32;;;17.70;73.40;;;;;;5044306;28;20033;-80
2023/10/30 09:50:16;;;;;;;0.75;0.38;;;17.70;73.80;;;;;;5089098;28;20089;-79
2023/10/30 09:52:41;;;;;;;1.92;0.40;;;17.70;73.50;;;;;;5091379;28;20048;-79
2023/10/30 09:55:11;;;;;;;1.45;0.40;;;17.70;73.70;;;;;;5086287;28;20044;-79
2023/10/30 09:57:37;;;;;;;0.30;0.25;;;17.70;73.70;;;;;;5060072;28;20105;-79
2023/10/30 10:00:05;;;;;;;1.02;0.40;;;17.60;74.20;;;;;;5060577;28;20048;-80
2023/10/30 10:02:32;;;;;;;1.60;0.45;;;17.70;75.20;;;;;;5063652;28;20041;-78
2023/10/30 10:04:58;;;;;;;0.32;0.20;;;17.70;74.30;;;;;;5062750;28;20052;-78
2023/10/30 10:07:24;;;;;;;1.55;0.20;;;17.70;74.20;;;;;;5056618;28;20048;-78
2023/10/30 10:09:57;;;;;;;0.70;0.35;;;17.70;74.20;;;;;;5060251;28;20048;-78
2023/10/30 10:12:22;;;;;;;1.83;0.20;;;17.70;74.30;;;;;;5058081;28;20043;-79
2023/10/30 10:14:48;;;;;;;1.27;0.15;;;17.80;74.40;;;;;;5062045;28;20056;-79
2023/10/30 10:17:13;;;;;;;0.10;0.10;;;17.70;74.50;;;;;;5058981;28;20044;-80
2023/10/30 10:19:44;;;;;;;0.47;0.30;;;17.80;74.60;;;;;;5061370;28;20984;-79
2023/10/30 10:22:10;;;;;;;0.47;0.30;;;17.80;74.70;;;;;;5042252;28;20051;-80
2023/10/30 10:24:37;;;;;;;0.20;0.20;;;17.80;74.80;;;;;;5059910;28;20036;-78
2023/10/30 10:27:04;;;;;;;0.35;0.20;;;17.80;74.90;;;;;;5061351;28;20533;-78
2023/10/30 10:29:33;;;;;;;0.20;0.20;;;17.80;74.80;;;;;;5060460;28;20118;-78
2023/10/30 10:31:58;;;;;;;0.22;0.20;;;17.80;75.40;;;;;;5059833;28;20753;-78
2023/10/30 10:34:24;;;;;;;0.30;0.22;;;17.80;76.00;;;;;;5057312;28;20183;-80
2023/10/30 10:36:50;;;;;;;0.20;0.10;;;17.90;76.10;;;;;;5059158;28;20095;-81
2023/10/30 10:39:15;;;;;;;0.20;0.20;;;17.90;76.20;;;;;;5060920;28;20036;-82
2023/10/30 10:41:41;;;;;;;0.28;0.20;;;17.90;76.30;;;;;;5064526;28;20067;-83
2023/10/30 10:44:08;;;;;;;0.20;0.20;;;17.90;75.90;;;;;;5060978;28;20044;-84
2023/10/30 10:46:34;;;;;;;1.83;0.30;;;17.80;76.00;;;;;;5055629;28;20437;-86
2023/10/30 10:49:01;;;;;;;0.55;0.40;;;17.80;76.20;;;;;;5061429;28;20494;-83
2023/10/30 10:51:37;;;;;;;0.17;0.13;;;17.80;76.10;;;;;;5061752;28;20060;-83
2023/10/30 10:54:05;;;;;;;0.50;0.20;;;17.90;75.80;;;;;;5095796;28;20391;-83
2023/10/30 10:56:32;;;;;;;4.32;1.52;;;17.90;75.80;;;;;;5063221;28;20037;-85
2023/10/30 10:59:03;;;;;;;2.70;1.50;;;17.90;75.70;;;;;;5076696;28;20060;-84
2023/10/30 11:01:29;;;;;;;3.42;1.20;;;17.90;75.60;;;;;;5058380;28;20044;-83
2023/10/30 11:03:54;;;;;;;0.82;0.60;;;17.90;75.60;;;;;;5070894;28;20052;-84
2023/10/30 11:06:21;;;;;;;0.82;0.45;;;17.90;75.60;;;;;;5063843;28;20581;-89
2023/10/30 11:08:50;;;;;;;1.40;0.57;;;18.00;75.60;;;;;;4714961;28;10000492;-80
2023/10/30 11:11:37;;;;;;;2.20;0.65;;;18.00;76.90;;;;;;5068667;28;20044;-79
2023/10/30 11:14:42;;;;;;;1.98;0.85;;;18.00;77.00;;;;;;5070641;28;20086;-79
2023/10/30 11:17:08;;;;;;;0.33;0.30;;;18.00;76.20;;;;;;4706423;28;10000520;-84
2023/10/30 11:19:37;;;;;;;1.45;0.60;;;18.00;75.90;;;;;;5059977;28;20615;-80
2023/10/30 11:22:02;;;;;;;0.93;0.45;;;18.00;75.70;;;;;;5061989;28;20556;-82
2023/10/30 11:24:34;;;;;;;1.65;0.38;;;18.00;75.60;;;;;;5058888;28;20663;-81
2023/10/30 11:27:00;;;;;;;2.20;0.40;;;18.00;75.40;;;;;;5059097;28;20446;-82
2023/10/30 11:29:52;;;;;;;0.60;0.30;;;18.00;75.30;;;;;;5057224;28;20049;-82
2023/10/30 11:32:17;;;;;;;0.95;0.43;;;18.00;75.50;;;;;;5093102;28;20040;-82
2023/10/30 11:34:43;;;;;;;1.58;0.68;;;18.00;75.50;;;;;;5057966;28;20055;-81
2023/10/30 11:37:14;;;;;;;0.95;0.47;;;17.90;75.10;;;;;;5061089;28;20041;-82
2023/10/30 11:39:42;;;;;;;0.93;0.40;;;17.90;75.00;;;;;;5062321;28;20048;-82
2023/10/30 11:42:28;;;;;;;1.02;0.50;;;17.90;74.90;;;;;;5063965;28;20589;-82
2023/10/30 11:45:18;;;;;;;0.40;0.40;;;17.90;74.80;;;;;;5062340;28;20043;-83
2023/10/30 11:47:46;;;;;;;0.50;0.30;;;17.90;74.70;;;;;;5060745;28;20048;-82
2023/10/30 11:50:11;;;;;;;0.70;0.50;;;17.90;74.80;;;;;;5061613;28;20045;-82
2023/10/30 11:52:40;;;;;;;0.75;0.40;;;17.90;74.70;;;;;;5060401;28;20040;-82
2023/10/30 11:55:06;;;;;;;0.57;0.30;;;17.90;74.80;;;;;;5073075;28;20493;-82
2023/10/30 11:57:32;;;;;;;0.60;0.35;;;17.90;74.70;;;;;;5057791;28;20528;-81
2023/10/30 11:59:59;;;;;;;1.50;0.40;;;17.80;74.60;;;;;;5062771;28;20039;-81
2023/10/30 12:02:24;;;;;;;2.30;0.30;;;17.80;74.60;;;;;;5043426;28;20075;-81
2023/10/30 12:04:50;;;;;;;0.38;0.20;;;17.80;74.60;;;;;;5060942;28;20446;-84
2023/10/30 12:07:15;;;;;;;0.80;0.40;;;17.80;74.50;;;;;;5058522;28;20055;-85
2023/10/30 12:09:41;;;;;;;0.60;0.40;;;17.80;74.50;;;;;;5056433;28;20040;-84
2023/10/30 12:12:07;;;;;;;1.48;0.40;;;17.80;74.40;;;;;;5062247;28;20111;-83
2023/10/30 12:14:32;;;;;;;0.25;0.20;;;17.80;74.50;;;;;;5077610;28;20309;-84
2023/10/30 12:16:58;;;;;;;2.78;0.45;;;17.80;75.20;;;;;;5065540;28;20052;-84
2023/10/30 12:19:24;;;;;;;0.40;0.35;;;17.80;74.30;;;;;;5067489;28;20104;-86
2023/10/30 12:21:50;;;;;;;1.85;0.30;;;17.80;74.30;;;;;;5058593;28;20067;-88
2023/10/30 12:24:19;;;;;;;0.80;0.30;;;17.80;74.10;;;;;;5068565;28;20123;-87
2023/10/30 12:26:46;;;;;;;0.50;0.38;;;17.80;74.10;;;;;;5066453;28;20040;-83
2023/10/30 12:29:11;;;;;;;1.17;0.40;;;17.80;74.20;;;;;;5066881;28;20366;-82
2023/10/30 12:31:37;;;;;;;0.38;0.30;;;17.80;74.10;;;;;;5064189;28;20044;-81
2023/10/30 12:34:14;;;;;;;0.30;0.20;;;17.90;74.10;;;;;;5092972;28;20075;-82
2023/10/30 12:36:40;;;;;;;0.70;0.35;;;17.90;74.10;;;;;;5099477;28;20072;-80
2023/10/30 12:39:15;;;;;;;1.77;0.40;;;17.90;74.10;;;;;;5070768;28;20465;-81
2023/10/30 12:41:41;;;;;;;0.57;0.40;;;17.90;73.90;;;;;;5066283;28;20052;-80